Terminal Aerodrome Forecast
Issued by NWS

Home | Current Version | Previous Version | Text Only | Print | Product List | Glossary On
Versions: 1 2 3 4 5 6 7 8 9 10 11 12 13 14 15 16 17 18 19 20 21
000
FTUS41 KPHI 272000 AAA
TAFPNE
TAF AMD
KPNE 272044Z 2721/2818 33008KT P6SM FEW025 OVC060
     FM280000 30005KT P6SM SCT035 BKN080
     FM281400 31010G18KT P6SM SKC=

USA.gov is the U.S. government's official web portal to all federal, state and local government web resources and services.